createdAt,value
2018-02-06T00:01:51.909Z,51.63
2018-02-06T00:04:19.594Z,52.03
2018-02-06T00:06:47.278Z,53.63
2018-02-06T00:09:14.866Z,49.57
2018-02-06T00:11:42.643Z,49.90
2018-02-06T00:14:10.206Z,51.83
2018-02-06T00:16:37.743Z,51.73
2018-02-06T00:19:05.468Z,48.97
2018-02-06T00:21:33.117Z,50.77
2018-02-06T00:24:00.740Z,54.93
2018-02-06T00:26:28.287Z,51.87
2018-02-06T00:28:55.843Z,54.03
2018-02-06T00:31:23.750Z,50.03
2018-02-06T00:33:51.587Z,49.57
2018-02-06T00:36:19.178Z,50.70
2018-02-06T00:38:46.736Z,50.50
2018-02-06T00:41:14.554Z,50.40
2018-02-06T00:43:42.110Z,57.90
2018-02-06T00:46:09.685Z,55.87
2018-02-06T00:48:37.257Z,46.50
2018-02-06T00:51:04.819Z,52.27
2018-02-06T00:53:32.393Z,53.13
2018-02-06T00:55:59.933Z,54.70
2018-02-06T00:58:27.569Z,51.27
2018-02-06T01:00:55.134Z,47.13
2018-02-06T01:03:22.693Z,43.20
2018-02-06T01:05:50.250Z,48.73
2018-02-06T01:08:17.934Z,54.03
2018-02-06T01:10:45.770Z,52.67
2018-02-06T01:13:13.338Z,45.20
2018-02-06T01:15:41.085Z,47.97
2018-02-06T01:18:08.823Z,48.00
2018-02-06T01:20:36.657Z,46.13
2018-02-06T01:23:04.461Z,45.93
2018-02-06T01:25:32.035Z,56.37
2018-02-06T01:27:59.616Z,48.27
2018-02-06T01:30:27.191Z,53.00
2018-02-06T01:32:55.035Z,50.40
2018-02-06T01:35:22.849Z,51.70
2018-02-06T01:37:50.671Z,47.17
2018-02-06T01:40:18.234Z,46.53
2018-02-06T01:42:45.964Z,44.27
2018-02-06T01:45:13.576Z,52.83
2018-02-06T01:47:41.106Z,48.33
2018-02-06T01:50:08.669Z,45.37
2018-02-06T01:52:36.341Z,46.13
2018-02-06T01:55:03.953Z,49.40
2018-02-06T01:57:31.574Z,49.40
2018-02-06T01:59:59.125Z,44.13
2018-02-06T02:02:26.693Z,46.40
2018-02-06T02:04:54.278Z,47.80
2018-02-06T02:07:22.083Z,46.53
2018-02-06T02:09:49.699Z,49.60
2018-02-06T02:12:17.257Z,49.30
2018-02-06T02:14:45.037Z,45.47
2018-02-06T02:17:12.585Z,46.33
2018-02-06T02:19:40.177Z,44.43
2018-02-06T02:22:07.991Z,47.50
2018-02-06T02:24:35.614Z,44.87
2018-02-06T02:27:03.187Z,44.97
2018-02-06T02:29:30.768Z,48.53
2018-02-06T02:31:58.351Z,46.00
2018-02-06T02:34:26.082Z,43.33
2018-02-06T02:36:53.898Z,45.10
2018-02-06T02:39:21.439Z,43.40
2018-02-06T04:39:52.433Z,61.20
2018-02-06T04:42:20.035Z,53.27
2018-02-06T04:44:47.782Z,57.37
2018-02-06T04:47:15.413Z,50.97
2018-02-06T04:49:43.159Z,50.23
2018-02-06T04:52:10.698Z,48.10
2018-02-06T04:54:38.491Z,49.83
2018-02-06T04:57:06.067Z,48.37
2018-02-06T04:59:33.657Z,50.30
2018-02-06T05:02:01.209Z,47.23
2018-02-06T05:04:29.062Z,53.43
2018-02-06T05:06:56.851Z,55.97
2018-02-06T05:09:24.402Z,54.90
2018-02-06T05:11:52.216Z,60.57
2018-02-06T05:14:19.817Z,53.23
2018-02-06T05:16:47.382Z,48.03
2018-02-06T05:19:14.971Z,51.20
2018-02-06T05:21:42.594Z,49.73
2018-02-06T05:24:10.154Z,51.93
2018-02-06T05:26:37.756Z,53.33
2018-02-06T05:29:05.306Z,53.77
2018-02-06T05:31:33.060Z,55.70
2018-02-06T05:34:00.639Z,50.03
2018-02-06T05:36:28.194Z,55.27
2018-02-06T05:38:56.014Z,56.23
2018-02-06T05:41:23.606Z,56.10
2018-02-06T05:43:51.157Z,53.53
2018-02-06T05:46:18.968Z,51.30
2018-02-06T05:48:46.525Z,56.60
2018-02-06T05:51:14.197Z,52.63
2018-02-06T05:53:41.808Z,61.70
2018-02-06T05:56:09.657Z,51.77
2018-02-06T05:58:37.213Z,54.97
2018-02-06T06:01:04.866Z,58.40
2018-02-06T06:03:32.597Z,66.13
2018-02-06T06:06:00.203Z,58.60
2018-02-06T06:08:27.766Z,68.40
2018-02-06T06:10:55.447Z,68.00
2018-02-06T06:13:23.058Z,61.90
2018-02-06T06:15:50.621Z,69.93
2018-02-06T06:18:18.401Z,64.73
2018-02-06T06:20:45.965Z,65.93
2018-02-06T06:23:13.514Z,65.87
2018-02-06T06:25:41.084Z,79.30
2018-02-06T06:28:08.872Z,70.07
2018-02-06T06:30:36.606Z,72.40
2018-02-06T06:33:04.165Z,89.33
2018-02-06T06:35:31.726Z,69.73
2018-02-06T06:37:59.545Z,67.60
2018-02-06T06:40:27.109Z,73.00
2018-02-06T06:42:54.690Z,73.73
2018-02-06T06:45:22.499Z,70.03
2018-02-06T06:47:50.181Z,70.57
2018-02-06T06:50:17.749Z,69.30
2018-02-06T06:52:45.344Z,73.80
2018-02-06T06:55:13.988Z,71.60
2018-02-06T06:57:41.792Z,68.83
2018-02-06T07:00:09.406Z,76.77
2018-02-06T07:02:36.940Z,71.10
2018-02-06T07:05:04.514Z,63.77
2018-02-06T07:07:32.263Z,69.43
2018-02-06T07:09:59.829Z,64.67
2018-02-06T07:12:27.447Z,73.47
2018-02-06T07:14:55.007Z,54.53
2018-02-06T07:17:22.834Z,56.70
2018-02-06T07:19:50.403Z,67.70
2018-02-06T07:22:17.981Z,63.43
2018-02-06T07:24:45.789Z,61.90
2018-02-06T07:27:13.612Z,57.57
2018-02-06T07:29:41.222Z,58.43
2018-02-06T07:32:08.786Z,58.13
2018-02-06T07:34:36.461Z,56.87
2018-02-06T07:37:04.179Z,56.37
2018-02-06T07:39:31.741Z,59.33
2018-02-06T07:41:59.427Z,61.97
2018-02-06T07:44:27.041Z,58.17
2018-02-06T07:46:54.851Z,54.13
2018-02-06T07:49:22.408Z,56.40
2018-02-06T07:51:50.072Z,66.63
2018-02-06T07:54:17.796Z,60.43
2018-02-06T07:56:45.360Z,54.57
2018-02-06T07:59:12.934Z,57.00
2018-02-06T08:01:40.488Z,47.07
2018-02-06T08:04:08.530Z,42.30
2018-02-06T08:06:36.311Z,51.93
2018-02-06T08:09:04.810Z,50.53
2018-02-06T08:11:32.773Z,52.47
2018-02-06T08:14:00.320Z,47.77
2018-02-06T08:16:27.881Z,54.87
2018-02-06T08:18:55.479Z,47.77
2018-02-06T08:21:23.104Z,48.97
2018-02-06T08:23:50.670Z,41.00
2018-02-06T08:26:18.227Z,35.03
2018-02-06T08:28:45.851Z,42.23
2018-02-06T08:31:13.498Z,40.27
2018-02-06T08:33:41.081Z,40.60
2018-02-06T08:36:08.682Z,45.90
2018-02-06T08:38:36.532Z,31.33
2018-02-06T08:41:04.309Z,29.47
2018-02-06T08:43:32.147Z,23.70
2018-02-06T08:45:59.741Z,25.60
2018-02-06T08:48:27.297Z,23.50
2018-02-06T08:50:55.126Z,22.47
2018-02-06T08:53:22.720Z,18.57
2018-02-06T08:55:50.460Z,24.03
2018-02-06T08:58:18.045Z,22.30
2018-02-06T09:00:45.795Z,23.87
2018-02-06T09:03:13.368Z,25.10
2018-02-06T09:05:41.477Z,25.63
2018-02-06T09:08:09.046Z,22.93
2018-02-06T09:10:36.672Z,24.03
2018-02-06T09:13:04.291Z,27.93
2018-02-06T09:15:31.876Z,28.73
2018-02-06T09:17:59.489Z,30.17
2018-02-06T09:20:27.133Z,25.40
2018-02-06T09:22:54.821Z,29.30
2018-02-06T09:25:22.393Z,27.10
2018-02-06T09:27:49.965Z,21.77
2018-02-06T09:30:17.711Z,26.17
2018-02-06T09:32:45.282Z,25.43
2018-02-06T09:35:12.852Z,26.57
2018-02-06T09:37:40.665Z,27.37
2018-02-06T09:40:08.237Z,38.90
2018-02-06T09:42:35.798Z,28.77
2018-02-06T09:45:03.620Z,25.97
2018-02-06T09:47:31.224Z,15.47
2018-02-06T09:49:58.812Z,18.13
2018-02-06T09:52:26.578Z,22.13
2018-02-06T09:54:54.238Z,22.73
2018-02-06T09:57:21.828Z,21.03
2018-02-06T09:59:49.418Z,21.37
2018-02-06T10:02:17.006Z,19.97
2018-02-06T10:04:44.653Z,16.10
2018-02-06T10:07:12.229Z,17.43
2018-02-06T10:09:40.004Z,17.57
2018-02-06T10:12:07.630Z,18.70
2018-02-06T10:14:35.228Z,17.63
2018-02-06T10:17:02.789Z,16.87
2018-02-06T10:19:30.497Z,17.63
2018-02-06T10:21:58.165Z,17.40
2018-02-06T10:24:25.748Z,21.13
2018-02-06T10:26:53.421Z,24.27
2018-02-06T10:29:21.133Z,23.97
2018-02-06T10:31:48.860Z,21.20
2018-02-06T10:34:16.432Z,27.23
2018-02-06T10:36:44.202Z,17.77
2018-02-06T10:39:11.761Z,19.10
2018-02-06T10:41:39.535Z,19.77
2018-02-06T10:44:07.251Z,14.30
2018-02-06T10:46:34.877Z,19.07
2018-02-06T10:49:02.445Z,20.73
2018-02-06T10:51:30.011Z,25.90
2018-02-06T10:53:57.582Z,23.40
2018-02-06T10:56:25.304Z,18.20
2018-02-06T10:58:52.891Z,18.27
2018-02-06T11:01:20.675Z,14.27
2018-02-06T11:03:48.494Z,15.60
2018-02-06T11:06:16.093Z,17.37
2018-02-06T11:08:43.813Z,21.70
2018-02-06T11:11:11.388Z,23.33
2018-02-06T11:13:38.942Z,22.00
2018-02-06T11:16:06.506Z,19.33
2018-02-06T11:18:34.304Z,22.17
2018-02-06T11:21:01.957Z,16.67
2018-02-06T11:23:29.531Z,25.40
2018-02-06T11:25:57.095Z,19.47
2018-02-06T11:28:24.682Z,28.30
2018-02-06T11:30:52.497Z,28.03
2018-02-06T11:33:20.113Z,21.13
2018-02-06T11:35:47.934Z,20.97
2018-02-06T11:38:15.615Z,18.60
2018-02-06T11:40:43.187Z,16.33
2018-02-06T11:43:10.894Z,17.80
2018-02-06T11:45:38.502Z,16.47
2018-02-06T11:48:06.233Z,17.80
2018-02-06T11:50:33.871Z,91.03
2018-02-06T11:53:01.638Z,83.60
2018-02-06T11:55:29.319Z,63.63
2018-02-06T11:57:57.592Z,22.83
2018-02-06T12:00:25.205Z,19.20
2018-02-06T12:02:52.770Z,44.40
2018-02-06T12:05:20.331Z,28.23
2018-02-06T12:07:48.114Z,15.17
2018-02-06T12:10:15.817Z,12.10
2018-02-06T12:12:43.542Z,12.93
2018-02-06T12:15:11.319Z,12.97
2018-02-06T12:17:38.928Z,18.90
2018-02-06T12:20:06.500Z,27.07
2018-02-06T12:22:34.069Z,21.13
2018-02-06T12:25:01.680Z,17.97
2018-02-06T12:27:29.237Z,17.20
2018-02-06T12:29:56.972Z,16.23
2018-02-06T12:32:24.552Z,22.03
2018-02-06T12:34:52.122Z,11.40
2018-02-06T12:37:19.841Z,12.93
2018-02-06T12:39:47.401Z,23.07
2018-02-06T12:42:15.216Z,15.90
2018-02-06T12:44:43.035Z,12.40
2018-02-06T12:47:10.751Z,15.27
2018-02-06T12:49:38.327Z,15.20
2018-02-06T12:52:05.975Z,89.57
2018-02-06T12:54:33.683Z,20.47
2018-02-06T12:57:01.242Z,15.10
2018-02-06T12:59:28.794Z,12.73
2018-02-06T13:01:56.361Z,12.80
2018-02-06T13:04:24.069Z,14.03
2018-02-06T13:06:51.626Z,10.93
2018-02-06T13:09:19.321Z,9.77
2018-02-06T13:11:47.132Z,11.73
2018-02-06T13:14:14.697Z,13.93
2018-02-06T13:16:42.278Z,17.50
2018-02-06T13:19:10.088Z,12.43
2018-02-06T13:21:37.760Z,12.83
2018-02-06T13:24:05.365Z,15.97
2018-02-06T13:26:32.886Z,10.80
2018-02-06T13:29:00.449Z,21.33
2018-02-06T13:31:28.022Z,12.70
2018-02-06T13:33:55.795Z,15.30
2018-02-06T13:36:23.512Z,14.83
2018-02-06T13:38:51.139Z,11.60
2018-02-06T13:41:18.697Z,13.50
2018-02-06T13:43:46.258Z,12.90
2018-02-06T13:46:13.974Z,12.00
2018-02-06T13:48:41.550Z,17.47
2018-02-06T13:51:09.421Z,13.27
2018-02-06T13:53:37.239Z,14.60
2018-02-06T13:56:04.805Z,11.27
2018-02-06T13:58:32.411Z,12.63
2018-02-06T14:00:59.976Z,9.87
2018-02-06T14:03:27.601Z,10.83
2018-02-06T14:05:55.168Z,18.70
2018-02-06T14:08:22.737Z,15.10
2018-02-06T14:10:50.352Z,11.60
2018-02-06T14:13:18.114Z,14.93
2018-02-06T14:15:45.810Z,13.67
2018-02-06T14:18:13.393Z,12.87
2018-02-06T14:20:41.036Z,12.33
2018-02-06T14:23:08.595Z,14.80
2018-02-06T14:25:36.156Z,14.40
2018-02-06T14:28:03.738Z,17.50
2018-02-06T14:30:31.506Z,13.53
2018-02-06T14:32:59.221Z,18.00
2018-02-06T14:35:27.015Z,16.87
2018-02-06T14:37:57.503Z,14.60
2018-02-06T14:40:25.187Z,22.30
2018-02-06T14:42:52.749Z,17.57
2018-02-06T14:45:20.345Z,19.20
2018-02-06T14:47:48.141Z,15.97
2018-02-06T14:50:15.717Z,19.70
2018-02-06T14:52:43.478Z,18.00
2018-02-06T14:55:11.296Z,19.03
2018-02-06T14:57:39.014Z,17.37
2018-02-06T15:00:06.596Z,15.90
2018-02-06T15:02:34.351Z,14.17
2018-02-06T15:05:01.916Z,19.40
2018-02-06T15:07:29.553Z,17.60
2018-02-06T15:09:57.271Z,17.80
2018-02-06T15:12:24.840Z,18.00
2018-02-06T15:14:52.422Z,15.70
2018-02-06T15:17:20.174Z,20.87
2018-02-06T15:19:47.767Z,18.77
2018-02-06T15:22:15.494Z,19.17
2018-02-06T15:24:43.213Z,26.27
2018-02-06T15:27:11.031Z,23.60
2018-02-06T15:29:38.597Z,27.73
2018-02-06T15:32:06.244Z,29.43
2018-02-06T15:34:33.804Z,26.17
2018-02-06T15:37:01.375Z,19.33
2018-02-06T15:39:29.120Z,15.53
2018-02-06T15:41:56.839Z,16.30
2018-02-06T15:44:24.409Z,16.33
2018-02-06T15:46:51.969Z,16.10
2018-02-06T15:49:19.582Z,18.23
2018-02-06T15:51:47.142Z,24.23
2018-02-06T15:54:14.710Z,14.20
2018-02-06T15:56:42.282Z,15.57
2018-02-06T15:59:09.881Z,17.40
2018-02-06T16:01:37.481Z,15.97
2018-02-06T16:04:05.097Z,17.30
2018-02-06T16:06:32.666Z,16.70
2018-02-06T16:09:00.315Z,52.13
2018-02-06T16:11:27.884Z,15.83
2018-02-06T16:13:55.443Z,16.97
2018-02-06T16:16:23.057Z,19.67
2018-02-06T16:18:50.617Z,14.67
2018-02-06T16:21:18.213Z,15.93
2018-02-06T16:23:45.814Z,14.90
2018-02-06T16:26:13.374Z,19.97
2018-02-06T16:28:41.190Z,19.37
2018-02-06T16:31:08.755Z,21.20
2018-02-06T16:33:36.517Z,22.70
2018-02-06T16:36:04.126Z,17.90
2018-02-06T16:38:31.685Z,22.30
2018-02-06T16:40:59.263Z,20.50
2018-02-06T16:43:26.829Z,33.53
2018-02-06T16:45:54.602Z,24.43
2018-02-06T16:48:22.236Z,18.20
2018-02-06T16:50:50.246Z,19.00
2018-02-06T16:53:17.899Z,19.07
2018-02-06T16:55:45.475Z,42.87
2018-02-06T16:58:13.291Z,24.20
2018-02-06T17:00:40.877Z,21.30
2018-02-06T17:03:08.509Z,19.83
2018-02-06T17:05:36.069Z,26.13
2018-02-06T17:08:03.762Z,30.57
2018-02-06T17:10:31.362Z,22.47
2018-02-06T17:12:59.006Z,19.07
2018-02-06T17:15:26.557Z,30.97
2018-02-06T17:17:54.337Z,22.93
2018-02-06T17:20:21.899Z,52.07
2018-02-06T17:22:49.449Z,46.83
2018-02-06T17:25:17.191Z,22.33
2018-02-06T17:27:44.752Z,24.80
2018-02-06T17:30:12.467Z,24.17
2018-02-06T17:32:40.031Z,20.73
2018-02-06T17:35:07.607Z,22.60
2018-02-06T17:37:35.198Z,21.37
2018-02-06T17:40:02.753Z,29.97
2018-02-06T17:42:30.322Z,42.03
2018-02-06T17:44:58.057Z,71.97
2018-02-06T17:47:25.670Z,49.13
2018-02-06T17:49:53.230Z,23.97
2018-02-06T17:52:20.785Z,34.73
2018-02-06T17:54:48.605Z,19.60
2018-02-06T17:57:16.194Z,69.27
2018-02-06T17:59:43.810Z,36.57
2018-02-06T18:02:11.558Z,34.03
2018-02-06T18:04:39.183Z,30.30
2018-02-06T18:07:06.786Z,28.93
2018-02-06T18:09:34.518Z,38.10
2018-02-06T18:12:02.134Z,26.77
2018-02-06T18:14:29.721Z,60.20
2018-02-06T18:16:57.361Z,23.33
2018-02-06T18:19:24.914Z,50.80
2018-02-06T18:21:52.524Z,21.93
2018-02-06T18:24:20.197Z,18.60
2018-02-06T18:26:47.929Z,21.67
2018-02-06T18:29:15.656Z,15.07
2018-02-06T18:31:43.260Z,17.37
2018-02-06T18:34:10.943Z,20.17
2018-02-06T18:36:38.513Z,12.83
2018-02-06T18:39:06.139Z,23.10
2018-02-06T18:41:33.946Z,17.17
2018-02-06T18:44:01.554Z,23.27
2018-02-06T18:46:29.262Z,23.10
2018-02-06T18:48:56.826Z,19.57
2018-02-06T18:51:24.510Z,16.13
2018-02-06T18:53:52.260Z,15.17
2018-02-06T18:56:19.890Z,17.87
2018-02-06T18:58:47.440Z,20.23
2018-02-06T19:01:14.999Z,16.53
2018-02-06T19:03:42.691Z,15.13
2018-02-06T19:06:10.417Z,18.93
2018-02-06T19:08:38.059Z,21.23
2018-02-06T19:11:05.862Z,20.97
2018-02-06T19:13:33.475Z,16.63
2018-02-06T19:16:01.174Z,20.27
2018-02-06T19:18:28.917Z,42.27
2018-02-06T19:20:56.503Z,27.80
2018-02-06T19:23:24.076Z,17.07
2018-02-06T19:25:51.652Z,17.17
2018-02-06T19:28:19.274Z,20.30
2018-02-06T19:30:47.120Z,17.97
2018-02-06T19:33:14.682Z,23.03
2018-02-06T19:35:42.249Z,20.10
2018-02-06T19:38:10.060Z,15.60
2018-02-06T19:40:37.780Z,37.57
2018-02-06T19:43:05.437Z,18.93
2018-02-06T19:45:33.106Z,15.20
2018-02-06T19:48:00.682Z,14.53
2018-02-06T19:50:28.520Z,17.73
2018-02-06T19:52:56.082Z,14.20
2018-02-06T19:55:23.666Z,16.37
2018-02-06T19:57:51.406Z,18.77
2018-02-06T20:00:19.242Z,14.60
2018-02-06T20:02:47.043Z,17.20
2018-02-06T20:05:14.602Z,15.77
2018-02-06T20:07:42.378Z,15.37
2018-02-06T20:10:09.953Z,16.17
2018-02-06T20:12:37.538Z,22.40
2018-02-06T20:15:05.089Z,16.37
2018-02-06T20:17:32.703Z,22.47
2018-02-06T20:20:00.262Z,20.20
2018-02-06T20:22:27.871Z,15.03
2018-02-06T20:24:55.438Z,16.53
2018-02-06T20:27:22.995Z,16.30
2018-02-06T20:29:50.548Z,18.13
2018-02-06T20:32:18.118Z,18.00
2018-02-06T20:34:45.975Z,16.07
2018-02-06T20:37:13.792Z,15.90
2018-02-06T20:39:41.360Z,18.27
2018-02-06T20:42:09.229Z,17.53
2018-02-06T20:44:36.825Z,16.60
2018-02-06T20:47:04.398Z,18.20
2018-02-06T20:49:31.953Z,16.50
2018-02-06T20:51:59.763Z,17.63
2018-02-06T20:54:27.315Z,20.63
2018-02-06T20:56:54.878Z,13.93
2018-02-06T20:59:22.610Z,15.30
2018-02-06T21:01:50.181Z,18.10
2018-02-06T21:04:18.091Z,14.57
2018-02-06T21:06:45.909Z,19.40
2018-02-06T21:09:13.468Z,18.30
2018-02-06T21:11:41.042Z,14.93
2018-02-06T21:14:08.763Z,16.53
2018-02-06T21:16:36.549Z,17.53
2018-02-06T21:19:04.265Z,17.83
2018-02-06T21:21:31.840Z,15.97
2018-02-06T21:23:59.635Z,16.93
2018-02-06T21:26:27.354Z,17.53
2018-02-06T21:28:55.002Z,16.00
2018-02-06T21:31:22.675Z,17.50
2018-02-06T21:33:50.295Z,19.13
2018-02-06T21:36:17.945Z,16.20
2018-02-06T21:38:45.537Z,17.13
2018-02-06T21:41:13.205Z,16.53
2018-02-06T21:43:40.829Z,12.47
2018-02-06T21:46:09.568Z,18.27
2018-02-06T21:48:37.238Z,15.50
2018-02-06T21:51:04.805Z,15.43
2018-02-06T21:53:32.516Z,14.43
2018-02-06T21:56:00.153Z,16.07
2018-02-06T21:58:27.891Z,15.30
2018-02-06T22:00:55.712Z,15.97
2018-02-06T22:03:23.529Z,19.87
2018-02-06T22:05:51.726Z,14.53
2018-02-06T22:08:19.302Z,15.43
2018-02-06T22:10:46.897Z,12.10
2018-02-06T22:13:14.702Z,13.80
2018-02-06T22:15:42.823Z,12.47
2018-02-06T22:18:10.754Z,14.53
2018-02-06T22:20:38.313Z,12.70
2018-02-06T22:23:05.874Z,13.33
2018-02-06T22:25:33.595Z,14.50
2018-02-06T22:28:01.417Z,12.17
2018-02-06T22:30:29.332Z,12.10
2018-02-06T22:32:57.154Z,13.97
2018-02-06T22:35:24.759Z,14.33
2018-02-06T22:37:52.325Z,13.13
2018-02-06T22:40:19.906Z,14.80
2018-02-06T22:42:47.722Z,13.60
2018-02-06T22:45:15.275Z,12.37
2018-02-06T22:47:43.060Z,11.27
2018-02-06T22:50:10.878Z,13.07
2018-02-06T22:52:38.466Z,13.10
2018-02-06T22:55:06.019Z,15.77
2018-02-06T22:57:33.609Z,12.33
2018-02-06T23:00:01.329Z,14.23
2018-02-06T23:02:29.050Z,11.63
2018-02-06T23:04:56.666Z,13.93
2018-02-06T23:07:24.294Z,14.07
2018-02-06T23:09:52.028Z,13.53
2018-02-06T23:12:19.840Z,14.07
2018-02-06T23:14:48.008Z,13.23
2018-02-06T23:17:15.780Z,16.00
2018-02-06T23:19:43.371Z,13.10
2018-02-06T23:22:11.114Z,15.43
2018-02-06T23:24:38.673Z,16.37
2018-02-06T23:27:06.432Z,13.90
2018-02-06T23:29:34.149Z,14.87
2018-02-06T23:32:02.050Z,15.10
2018-02-06T23:34:29.853Z,14.93
2018-02-06T23:36:57.629Z,15.70
2018-02-06T23:39:25.361Z,15.23
2018-02-06T23:41:52.934Z,15.77
2018-02-06T23:44:20.569Z,14.57
2018-02-06T23:46:48.764Z,16.63
2018-02-06T23:49:16.326Z,14.30
2018-02-06T23:51:44.351Z,15.07
2018-02-06T23:54:12.236Z,17.30
2018-02-06T23:56:39.951Z,17.93
2018-02-06T23:59:07.791Z,18.13
